createdAt,value
2022-08-25T00:01:34.039Z,21.70
2022-08-25T00:04:37.099Z,21.70
2022-08-25T00:07:40.148Z,21.70
2022-08-25T00:10:43.160Z,21.70
2022-08-25T00:14:02.027Z,21.70
2022-08-25T00:17:06.166Z,21.70
2022-08-25T00:20:10.836Z,21.60
2022-08-25T00:23:14.100Z,21.50
2022-08-25T00:26:18.343Z,21.50
2022-08-25T00:29:23.619Z,21.50
2022-08-25T00:32:27.054Z,21.40
2022-08-25T00:35:30.232Z,21.30
2022-08-25T00:38:33.342Z,21.30
2022-08-25T00:41:37.362Z,21.30
2022-08-25T00:44:43.796Z,21.20
2022-08-25T00:47:46.985Z,21.20
2022-08-25T00:50:50.118Z,21.20
2022-08-25T00:53:54.073Z,21.20
2022-08-25T00:56:59.162Z,21.10
2022-08-25T01:00:10.624Z,21.20
2022-08-25T01:03:14.211Z,21.10
2022-08-25T01:06:17.277Z,21.00
2022-08-25T01:09:21.166Z,21.00
2022-08-25T01:12:24.250Z,21.00
2022-08-25T01:15:28.965Z,21.00
2022-08-25T01:18:44.181Z,20.90
2022-08-25T01:21:51.538Z,20.90
2022-08-25T01:25:00.462Z,20.90
2022-08-25T01:28:04.046Z,20.90
2022-08-25T01:31:23.685Z,20.90
2022-08-25T01:34:29.795Z,20.90
2022-08-25T01:37:35.302Z,20.80
2022-08-25T01:40:40.312Z,20.70
2022-08-25T01:43:43.300Z,20.70
2022-08-25T01:46:46.444Z,20.70
2022-08-25T01:49:49.500Z,20.60
2022-08-25T01:52:57.275Z,20.60
2022-08-25T01:56:03.831Z,20.60
2022-08-25T01:59:07.183Z,20.60
2022-08-25T02:02:10.608Z,20.60
2022-08-25T02:05:18.437Z,20.60
2022-08-25T02:08:27.623Z,20.60
2022-08-25T02:11:30.698Z,20.60
2022-08-25T02:14:35.633Z,20.50
2022-08-25T02:17:38.644Z,20.50
2022-08-25T02:20:41.658Z,20.50
2022-08-25T02:23:46.015Z,20.50
2022-08-25T02:26:49.265Z,20.50
2022-08-25T02:29:52.574Z,20.50
2022-08-25T02:32:55.583Z,20.50
2022-08-25T02:35:59.620Z,20.40
2022-08-25T02:39:05.239Z,20.40
2022-08-25T02:42:08.588Z,20.40
2022-08-25T02:45:11.843Z,20.30
2022-08-25T02:48:14.879Z,20.30
2022-08-25T02:51:17.916Z,20.30
2022-08-25T02:54:23.208Z,20.30
2022-08-25T02:57:26.243Z,20.30
2022-08-25T03:00:29.226Z,20.30
2022-08-25T03:03:34.310Z,20.20
2022-08-25T03:06:40.870Z,20.10
2022-08-25T03:09:45.838Z,20.10
2022-08-25T03:12:49.112Z,20.10
2022-08-25T03:15:52.227Z,20.10
2022-08-25T03:18:55.291Z,20.10
2022-08-25T03:21:59.691Z,20.00
2022-08-25T03:25:23.484Z,20.00
2022-08-25T03:28:29.861Z,20.00
2022-08-25T03:31:33.998Z,20.00
2022-08-25T03:34:37.034Z,20.00
2022-08-25T03:37:40.668Z,20.00
2022-08-25T03:40:45.001Z,19.90
2022-08-25T03:43:48.991Z,19.90
2022-08-25T03:46:53.180Z,19.80
2022-08-25T03:49:56.269Z,19.80
2022-08-25T03:52:59.297Z,19.80
2022-08-25T03:56:04.358Z,19.70
2022-08-25T03:59:09.199Z,19.70
2022-08-25T04:02:12.272Z,19.70
2022-08-25T04:05:15.865Z,19.60
2022-08-25T04:08:19.145Z,19.60
2022-08-25T04:11:24.467Z,19.60
2022-08-25T04:14:27.519Z,19.60
2022-08-25T04:17:30.701Z,19.60
2022-08-25T04:20:33.692Z,19.60
2022-08-25T04:23:36.748Z,19.60
2022-08-25T04:26:43.237Z,19.60
2022-08-25T04:29:46.278Z,19.60
2022-08-25T04:32:49.300Z,19.60
2022-08-25T04:35:52.386Z,19.70
2022-08-25T04:38:55.458Z,19.60
2022-08-25T04:42:00.684Z,19.70
2022-08-25T04:45:05.722Z,19.70
2022-08-25T04:48:09.957Z,19.70
2022-08-25T04:51:14.926Z,19.70
2022-08-25T04:54:21.497Z,19.70
2022-08-25T04:57:25.841Z,19.60
2022-08-25T05:00:28.823Z,19.60
2022-08-25T05:03:32.167Z,19.50
2022-08-25T05:06:35.844Z,19.60
2022-08-25T05:09:38.837Z,19.60
2022-08-25T05:12:43.182Z,19.70
2022-08-25T05:15:53.951Z,19.80
2022-08-25T05:18:57.759Z,19.80
2022-08-25T05:22:00.787Z,19.90
2022-08-25T05:25:03.809Z,19.90
2022-08-25T05:28:08.160Z,19.90
2022-08-25T05:31:13.449Z,19.90
2022-08-25T05:34:17.461Z,19.80
2022-08-25T05:37:20.523Z,19.70
2022-08-25T05:40:23.638Z,19.80
2022-08-25T05:43:28.732Z,19.80
2022-08-25T05:46:31.890Z,19.80
2022-08-25T05:49:35.074Z,19.80
2022-08-25T05:52:38.214Z,19.80
2022-08-25T05:55:45.452Z,19.80
2022-08-25T05:58:50.415Z,19.80
2022-08-25T06:02:11.306Z,19.80
2022-08-25T06:05:17.417Z,19.60
2022-08-25T06:08:20.566Z,19.60
2022-08-25T06:11:23.784Z,19.80
2022-08-25T06:14:28.251Z,19.80
2022-08-25T06:17:31.307Z,19.80
2022-08-25T06:20:34.347Z,19.90
2022-08-25T06:23:38.655Z,19.90
2022-08-25T06:26:41.703Z,20.00
2022-08-25T06:29:46.316Z,20.00
2022-08-25T06:32:50.169Z,20.10
2022-08-25T06:35:55.797Z,20.10
2022-08-25T06:38:58.854Z,20.10
2022-08-25T06:42:01.902Z,20.20
2022-08-25T06:45:07.750Z,20.20
2022-08-25T06:48:10.855Z,20.30
2022-08-25T06:51:15.759Z,20.30
2022-08-25T06:54:18.790Z,20.20
2022-08-25T06:57:21.923Z,20.10
2022-08-25T07:00:30.686Z,20.20
2022-08-25T07:03:34.675Z,20.30
2022-08-25T07:06:37.858Z,20.40
2022-08-25T07:09:40.968Z,20.40
2022-08-25T07:12:44.077Z,20.40
2022-08-25T07:15:48.539Z,20.40
2022-08-25T07:18:51.765Z,20.20
2022-08-25T07:21:55.096Z,20.10
2022-08-25T07:24:58.090Z,20.20
2022-08-25T07:28:01.259Z,20.30
2022-08-25T07:31:07.130Z,20.30
2022-08-25T07:34:30.668Z,20.30
2022-08-25T07:37:48.076Z,20.30
2022-08-25T07:40:54.781Z,20.40
2022-08-25T07:44:00.148Z,20.50
2022-08-25T07:47:04.933Z,20.50
2022-08-25T07:50:10.515Z,20.50
2022-08-25T07:53:15.170Z,20.50
2022-08-25T07:56:18.789Z,20.60
2022-08-25T07:59:21.890Z,20.80
2022-08-25T08:02:26.780Z,20.90
2022-08-25T08:05:30.350Z,20.90
2022-08-25T08:08:33.403Z,21.00
2022-08-25T08:11:45.520Z,21.00
2022-08-25T08:14:57.100Z,21.00
2022-08-25T08:18:02.017Z,20.80
2022-08-25T08:21:06.311Z,20.90
2022-08-25T08:24:19.771Z,21.00
2022-08-25T08:27:32.923Z,21.00
2022-08-25T08:30:36.708Z,21.00
2022-08-25T08:33:41.368Z,21.10
2022-08-25T08:36:45.350Z,21.10
2022-08-25T08:39:48.586Z,21.20
2022-08-25T08:43:02.425Z,21.10
2022-08-25T08:46:05.858Z,21.20
2022-08-25T08:49:26.805Z,21.20
2022-08-25T08:52:40.174Z,21.10
2022-08-25T08:55:51.874Z,21.00
2022-08-25T08:59:00.582Z,21.10
2022-08-25T09:02:15.712Z,21.20
2022-08-25T09:05:54.198Z,21.30
2022-08-25T09:09:00.109Z,21.30
2022-08-25T09:12:13.257Z,21.40
2022-08-25T09:15:48.023Z,21.40
2022-08-25T09:18:59.462Z,21.50
2022-08-25T09:22:35.332Z,21.60
2022-08-25T09:25:53.003Z,21.50
2022-08-25T09:29:03.587Z,21.60
2022-08-25T09:32:10.273Z,21.70
2022-08-25T09:35:21.025Z,21.90
2022-08-25T09:38:26.998Z,22.00
2022-08-25T09:41:43.105Z,22.10
2022-08-25T09:44:48.446Z,22.30
2022-08-25T09:47:51.426Z,22.50
2022-08-25T09:51:01.087Z,22.70
2022-08-25T09:54:17.840Z,22.80
2022-08-25T09:57:31.215Z,22.90
2022-08-25T10:00:35.661Z,23.00
2022-08-25T10:03:38.929Z,23.20
2022-08-25T10:06:46.884Z,23.20
2022-08-25T10:09:55.771Z,23.30
2022-08-25T10:13:00.982Z,23.50
2022-08-25T10:16:24.159Z,23.70
2022-08-25T10:19:30.236Z,23.90
2022-08-25T10:22:34.332Z,24.60
2022-08-25T10:25:43.722Z,25.20
2022-08-25T10:29:11.845Z,25.90
2022-08-25T10:32:19.667Z,26.60
2022-08-25T10:35:29.654Z,27.00
2022-08-25T10:38:43.336Z,27.10
2022-08-25T10:41:58.844Z,27.30
2022-08-25T10:45:30.374Z,27.70
2022-08-25T10:48:49.880Z,27.80
2022-08-25T10:52:02.338Z,27.70
2022-08-25T10:55:18.289Z,27.80
2022-08-25T10:58:30.600Z,27.80
2022-08-25T11:01:48.794Z,27.60
2022-08-25T11:05:01.951Z,27.20
2022-08-25T11:08:11.603Z,27.00
2022-08-25T11:11:26.937Z,27.00
2022-08-25T11:14:36.264Z,27.20
2022-08-25T11:17:47.099Z,27.20
2022-08-25T11:21:00.729Z,27.10
2022-08-25T11:24:15.719Z,27.00
2022-08-25T11:27:24.370Z,27.10
2022-08-25T11:30:29.786Z,27.40
2022-08-25T11:33:34.111Z,27.60
2022-08-25T11:36:40.531Z,27.70
2022-08-25T11:40:16.012Z,27.70
2022-08-25T11:43:40.449Z,27.90
2022-08-25T11:47:01.595Z,28.00
2022-08-25T11:50:07.259Z,28.10
2022-08-25T11:53:26.612Z,28.00
2022-08-25T11:56:34.875Z,28.10
2022-08-25T12:00:04.489Z,28.30
2022-08-25T12:03:50.978Z,28.30
2022-08-25T12:07:33.568Z,28.10
2022-08-25T12:10:59.322Z,28.20
2022-08-25T12:14:16.062Z,28.30
2022-08-25T12:17:24.118Z,28.40
2022-08-25T12:21:01.323Z,28.20
2022-08-25T12:24:15.629Z,28.00
2022-08-25T12:27:26.988Z,27.90
2022-08-25T12:30:40.934Z,28.10
2022-08-25T12:33:56.741Z,27.90
2022-08-25T12:37:06.232Z,27.80
2022-08-25T12:40:25.309Z,28.20
2022-08-25T12:43:33.443Z,28.90
2022-08-25T12:46:44.610Z,29.20
2022-08-25T12:49:48.386Z,28.90
2022-08-25T12:52:53.599Z,28.50
2022-08-25T12:56:04.556Z,28.40
2022-08-25T12:59:15.424Z,29.10
2022-08-25T13:02:51.981Z,29.20
2022-08-25T13:06:39.336Z,29.10
2022-08-25T13:10:12.232Z,29.20
2022-08-25T13:13:32.239Z,30.70
2022-08-25T13:16:35.476Z,32.30
2022-08-25T13:19:39.204Z,33.20
2022-08-25T13:22:44.873Z,33.70
2022-08-25T13:25:50.344Z,33.90
2022-08-25T13:28:58.995Z,34.40
2022-08-25T13:32:09.080Z,33.20
2022-08-25T13:35:17.548Z,32.70
2022-08-25T13:38:20.916Z,32.00
2022-08-25T13:41:28.749Z,31.40
2022-08-25T13:44:39.009Z,31.30
2022-08-25T13:47:45.730Z,31.00
2022-08-25T13:50:51.795Z,30.50
2022-08-25T13:53:58.361Z,30.20
2022-08-25T13:57:18.423Z,29.90
2022-08-25T14:00:32.660Z,29.70
2022-08-25T14:03:37.827Z,29.40
2022-08-25T14:06:41.263Z,29.00
2022-08-25T14:09:50.049Z,28.70
2022-08-25T14:13:09.734Z,28.80
2022-08-25T14:16:20.037Z,28.90
2022-08-25T14:19:25.071Z,29.00
2022-08-25T14:22:28.505Z,29.20
2022-08-25T14:25:32.456Z,29.20
2022-08-25T14:28:35.800Z,29.20
2022-08-25T14:31:43.513Z,29.20
2022-08-25T14:34:47.202Z,29.20
2022-08-25T14:37:50.280Z,29.20
2022-08-25T14:40:54.105Z,29.00
2022-08-25T14:43:57.155Z,29.00
2022-08-25T14:47:02.654Z,28.80
2022-08-25T14:50:08.347Z,28.60
2022-08-25T14:53:12.447Z,28.50
2022-08-25T14:56:15.631Z,28.60
2022-08-25T14:59:18.772Z,28.70
2022-08-25T15:02:29.606Z,28.80
2022-08-25T15:05:33.642Z,28.80
2022-08-25T15:08:54.439Z,28.70
2022-08-25T15:11:58.816Z,28.50
2022-08-25T15:15:01.871Z,28.30
2022-08-25T15:18:06.642Z,28.20
2022-08-25T15:21:09.795Z,28.10
2022-08-25T15:24:17.494Z,28.10
2022-08-25T15:27:22.224Z,28.00
2022-08-25T15:30:30.997Z,28.00
2022-08-25T15:33:35.722Z,28.10
2022-08-25T15:36:39.262Z,28.10
2022-08-25T15:39:44.556Z,28.20
2022-08-25T15:42:47.637Z,28.10
2022-08-25T15:45:51.514Z,28.00
2022-08-25T15:48:57.038Z,28.00
2022-08-25T15:52:00.271Z,28.00
2022-08-25T15:55:03.713Z,27.90
2022-08-25T15:58:06.723Z,27.90
2022-08-25T16:01:14.513Z,27.70
2022-08-25T16:04:19.204Z,27.80
2022-08-25T16:07:22.602Z,27.70
2022-08-25T16:10:26.621Z,27.70
2022-08-25T16:13:29.738Z,27.70
2022-08-25T16:16:34.252Z,27.70
2022-08-25T16:19:39.275Z,27.70
2022-08-25T16:22:42.882Z,27.70
2022-08-25T16:25:48.307Z,27.80
2022-08-25T16:28:51.894Z,27.70
2022-08-25T16:31:55.350Z,27.80
2022-08-25T16:35:01.214Z,27.70
2022-08-25T16:38:04.600Z,27.70
2022-08-25T16:41:09.006Z,27.70
2022-08-25T16:44:12.273Z,27.50
2022-08-25T16:47:17.682Z,27.40
2022-08-25T16:50:24.723Z,27.40
2022-08-25T16:53:53.567Z,27.40
2022-08-25T16:56:57.435Z,27.30
2022-08-25T17:00:00.608Z,27.30
2022-08-25T17:03:05.734Z,27.30
2022-08-25T17:06:10.378Z,27.30
2022-08-25T17:09:18.254Z,27.20
2022-08-25T17:12:26.247Z,27.20
2022-08-25T17:15:29.408Z,27.20
2022-08-25T17:18:33.565Z,27.20
2022-08-25T17:21:40.528Z,27.10
2022-08-25T17:24:53.370Z,27.00
2022-08-25T17:28:04.627Z,27.10
2022-08-25T17:31:09.091Z,27.00
2022-08-25T17:34:16.244Z,26.90
2022-08-25T17:37:21.213Z,26.90
2022-08-25T17:40:24.967Z,26.80
2022-08-25T17:43:31.195Z,26.80
2022-08-25T17:46:34.481Z,26.70
2022-08-25T17:49:37.672Z,26.70
2022-08-25T17:52:42.017Z,26.60
2022-08-25T17:55:46.192Z,26.60
2022-08-25T17:58:50.656Z,26.50
2022-08-25T18:01:55.540Z,26.50
2022-08-25T18:04:58.792Z,26.40
2022-08-25T18:08:03.941Z,26.40
2022-08-25T18:11:14.386Z,26.30
2022-08-25T18:14:20.366Z,26.30
2022-08-25T18:17:25.188Z,26.20
2022-08-25T18:20:29.435Z,26.10
2022-08-25T18:23:33.789Z,26.10
2022-08-25T18:26:36.945Z,26.10
2022-08-25T18:29:40.633Z,25.90
2022-08-25T18:32:43.720Z,25.90
2022-08-25T18:35:47.046Z,25.80
2022-08-25T18:39:10.265Z,25.70
2022-08-25T18:42:13.279Z,25.60
2022-08-25T18:45:16.412Z,25.60
2022-08-25T18:48:23.563Z,25.60
2022-08-25T18:51:33.128Z,25.50
2022-08-25T18:54:39.078Z,25.50
2022-08-25T18:57:43.499Z,25.40
2022-08-25T19:00:46.733Z,25.30
2022-08-25T19:03:50.275Z,25.20
2022-08-25T19:06:53.332Z,25.20
2022-08-25T19:09:57.677Z,25.10
2022-08-25T19:13:07.951Z,25.10
2022-08-25T19:16:13.939Z,25.10
2022-08-25T19:19:21.891Z,25.00
2022-08-25T19:22:40.807Z,25.00
2022-08-25T19:25:46.772Z,25.00
2022-08-25T19:28:51.017Z,24.90
2022-08-25T19:31:54.459Z,24.80
2022-08-25T19:34:57.855Z,24.80
2022-08-25T19:38:02.658Z,24.70
2022-08-25T19:41:14.590Z,24.70
2022-08-25T19:44:18.550Z,24.60
2022-08-25T19:47:21.607Z,24.50
2022-08-25T19:50:24.875Z,24.50
2022-08-25T19:53:27.964Z,24.40
2022-08-25T19:56:35.083Z,24.40
2022-08-25T19:59:43.018Z,24.40
2022-08-25T20:02:47.202Z,24.40
2022-08-25T20:05:51.844Z,24.40
2022-08-25T20:09:00.299Z,24.30
2022-08-25T20:12:06.516Z,24.30
2022-08-25T20:15:10.571Z,24.20
2022-08-25T20:18:13.625Z,24.20
2022-08-25T20:21:16.714Z,24.20
2022-08-25T20:24:37.242Z,24.10
2022-08-25T20:27:45.876Z,24.10
2022-08-25T20:30:48.967Z,24.00
2022-08-25T20:33:53.561Z,24.00
2022-08-25T20:36:57.310Z,23.90
2022-08-25T20:40:00.652Z,23.80
2022-08-25T20:43:05.171Z,23.80
2022-08-25T20:46:13.686Z,23.70
2022-08-25T20:49:16.768Z,23.70
2022-08-25T20:52:21.801Z,23.60
2022-08-25T20:55:24.921Z,23.60
2022-08-25T20:58:30.985Z,23.60
2022-08-25T21:01:42.792Z,23.60
2022-08-25T21:04:49.905Z,23.50
2022-08-25T21:07:53.427Z,23.50
2022-08-25T21:10:56.458Z,23.50
2022-08-25T21:14:01.658Z,23.40
2022-08-25T21:17:09.659Z,23.30
2022-08-25T21:20:16.395Z,23.30
2022-08-25T21:23:19.442Z,23.30
2022-08-25T21:26:24.401Z,23.30
2022-08-25T21:29:32.580Z,23.20
2022-08-25T21:32:35.825Z,23.20
2022-08-25T21:35:41.517Z,23.20
2022-08-25T21:38:46.349Z,23.20
2022-08-25T21:41:49.419Z,23.20
2022-08-25T21:44:54.051Z,23.20
2022-08-25T21:47:57.072Z,23.10
2022-08-25T21:51:07.257Z,23.10
2022-08-25T21:54:14.237Z,23.10
2022-08-25T21:57:18.046Z,23.10
2022-08-25T22:00:24.046Z,23.10
2022-08-25T22:03:27.055Z,23.10
2022-08-25T22:06:31.201Z,23.10
2022-08-25T22:09:35.379Z,23.10
2022-08-25T22:12:38.680Z,23.10
2022-08-25T22:15:43.538Z,23.10
2022-08-25T22:18:47.620Z,23.10
2022-08-25T22:21:51.477Z,23.10
2022-08-25T22:24:55.851Z,23.20
2022-08-25T22:27:58.923Z,23.10
2022-08-25T22:31:06.724Z,23.10
2022-08-25T22:34:11.521Z,23.10
2022-08-25T22:37:17.664Z,23.10
2022-08-25T22:40:20.885Z,23.10
2022-08-25T22:43:24.026Z,23.10
2022-08-25T22:46:31.062Z,23.10
2022-08-25T22:49:35.366Z,23.10
2022-08-25T22:52:39.076Z,23.00
2022-08-25T22:55:45.554Z,23.00
2022-08-25T22:58:51.702Z,23.00
2022-08-25T23:01:57.631Z,23.00
2022-08-25T23:05:01.587Z,23.00
2022-08-25T23:08:04.906Z,23.00
2022-08-25T23:11:10.853Z,23.00
2022-08-25T23:14:14.009Z,23.00
2022-08-25T23:17:18.415Z,23.00
2022-08-25T23:20:45.164Z,23.00
2022-08-25T23:23:49.177Z,22.90
2022-08-25T23:26:52.239Z,23.00
2022-08-25T23:29:55.570Z,22.90
2022-08-25T23:33:01.306Z,23.00
2022-08-25T23:36:07.972Z,22.90
2022-08-25T23:39:11.167Z,22.90
2022-08-25T23:42:14.212Z,22.90
2022-08-25T23:45:17.343Z,22.80
2022-08-25T23:48:22.007Z,22.80
2022-08-25T23:51:27.059Z,22.80
2022-08-25T23:54:31.700Z,22.80
2022-08-25T23:57:34.829Z,22.70
